Time;durP1;ratioP1;P1;durP2;ratioP2;P2;SDS_P1;SDS_P2;PMS_P1;PMS_P2;Temp;Humidity;BMP_temperature;BMP_pressure;BME280_temperature;BME280_humidity;BME280_pressure;Samples;Min_cycle;Max_cycle;Signal;HPM_P1;HPM_P2
2022/07/08 00:01:06;;;;;;;9.23;2.45;;;;;12.90;95164.00;;;;7391378;19;20132;-74
2022/07/08 00:03:34;;;;;;;9.98;3.30;;;;;12.90;95168.00;;;;7392735;19;20160;-72
2022/07/08 00:06:08;;;;;;;12.65;2.80;;;;;12.70;95168.00;;;;7391959;19;20599;-73
2022/07/08 00:08:42;;;;;;;10.75;2.63;;;;;12.70;95175.00;;;;7394723;19;20586;-73
2022/07/08 00:11:17;;;;;;;8.35;2.65;;;;;12.60;95178.00;;;;7391558;19;20180;-73
2022/07/08 00:13:58;;;;;;;7.03;2.47;;;;;12.60;95173.00;;;;7392293;19;20164;-73
2022/07/08 00:16:26;;;;;;;10.75;3.05;;;;;12.60;95178.00;;;;7392799;19;20615;-73
2022/07/08 00:19:00;;;;;;;10.45;2.72;;;;;12.60;95179.00;;;;7394133;19;20141;-74
2022/07/08 00:21:27;;;;;;;8.40;2.10;;;;;12.60;95186.00;;;;7392743;19;20117;-72
2022/07/08 00:23:55;;;;;;;10.40;2.88;;;;;12.60;95183.00;;;;7392028;19;20153;-73
2022/07/08 00:26:29;;;;;;;5.22;2.10;;;;;12.50;95173.00;;;;7391819;19;20144;-72
2022/07/08 00:28:57;;;;;;;8.07;2.25;;;;;12.50;95175.00;;;;7392796;19;20152;-73
2022/07/08 00:31:25;;;;;;;7.90;2.45;;;;;12.50;95178.00;;;;7381691;19;20144;-73
2022/07/08 00:33:59;;;;;;;6.72;2.40;;;;;12.30;95182.00;;;;7388013;19;20503;-72
2022/07/08 00:36:27;;;;;;;9.95;3.13;;;;;12.00;95182.00;;;;7391880;19;20504;-75
2022/07/08 00:38:54;;;;;;;11.30;2.92;;;;;12.10;95191.00;;;;7391489;19;20129;-74
2022/07/08 00:41:28;;;;;;;7.45;2.45;;;;;12.10;95192.00;;;;7390112;19;20124;-73
2022/07/08 00:43:56;;;;;;;6.68;2.85;;;;;12.00;95190.00;;;;7392324;19;20144;-74
2022/07/08 00:46:24;;;;;;;11.93;2.58;;;;;12.10;95203.00;;;;7391618;19;20485;-75
2022/07/08 00:48:59;;;;;;;10.32;2.90;;;;;12.10;95195.00;;;;7391460;19;20480;-75
2022/07/08 00:51:29;;;;;;;8.25;2.50;;;;;12.10;95197.00;;;;7391872;19;20140;-74
2022/07/08 00:53:57;;;;;;;7.55;2.40;;;;;12.00;95187.00;;;;7393540;19;20591;-75
2022/07/08 00:56:32;;;;;;;6.65;3.03;;;;;12.00;95187.00;;;;7391378;19;20129;-74
2022/07/08 00:58:59;;;;;;;5.25;2.55;;;;;11.80;95185.00;;;;7393119;19;20125;-74
2022/07/08 01:01:27;;;;;;;5.60;2.90;;;;;11.70;95180.00;;;;7388048;19;20137;-75
2022/07/08 01:04:01;;;;;;;8.30;3.15;;;;;11.70;95182.00;;;;7392926;19;20133;-75
2022/07/08 01:06:29;;;;;;;8.52;3.47;;;;;11.70;95173.00;;;;7388635;19;20131;-75
2022/07/08 01:08:56;;;;;;;8.55;3.28;;;;;11.70;95179.00;;;;7389618;19;20125;-76
2022/07/08 01:11:37;;;;;;;9.00;4.10;;;;;11.50;95162.00;;;;7390129;19;20172;-75
2022/07/08 01:14:05;;;;;;;6.63;3.97;;;;;11.40;95165.00;;;;7391823;19;20129;-75
2022/07/08 01:16:40;;;;;;;13.23;4.43;;;;;11.40;95162.00;;;;7391031;19;20487;-75
2022/07/08 01:19:07;;;;;;;8.95;4.25;;;;;11.30;95158.00;;;;7390828;19;20129;-75
2022/07/08 01:21:35;;;;;;;11.77;3.90;;;;;11.50;95161.00;;;;7390540;19;20113;-75
2022/07/08 01:24:09;;;;;;;11.43;4.05;;;;;11.40;95164.00;;;;7390362;19;20121;-75
2022/07/08 01:26:37;;;;;;;8.80;3.83;;;;;11.40;95157.00;;;;7390571;19;20584;-76
2022/07/08 01:29:05;;;;;;;9.23;4.05;;;;;11.30;95170.00;;;;7391181;19;20115;-75
2022/07/08 01:31:39;;;;;;;10.32;4.38;;;;;11.20;95171.00;;;;7390583;19;20587;-72
2022/07/08 01:34:06;;;;;;;9.38;4.55;;;;;11.10;95170.00;;;;7389983;19;20160;-75
2022/07/08 01:36:34;;;;;;;7.05;3.60;;;;;11.00;95176.00;;;;7390874;19;20125;-73
2022/07/08 01:39:08;;;;;;;9.55;4.20;;;;;11.00;95180.00;;;;7390834;19;20131;-73
2022/07/08 01:41:36;;;;;;;8.57;3.67;;;;;11.00;95181.00;;;;7391233;19;20129;-73
2022/07/08 01:44:04;;;;;;;9.25;3.55;;;;;11.00;95185.00;;;;7390226;19;20175;-75
2022/07/08 01:46:38;;;;;;;7.22;3.75;;;;;10.90;95192.00;;;;7391343;19;20160;-75
2022/07/08 01:49:05;;;;;;;9.38;3.85;;;;;11.00;95184.00;;;;7391463;19;20125;-73
2022/07/08 01:51:33;;;;;;;7.70;3.58;;;;;10.90;95182.00;;;;7391719;19;20133;-75
2022/07/08 01:54:08;;;;;;;8.95;3.80;;;;;10.90;95181.00;;;;7391280;19;20125;-75
2022/07/08 01:56:42;;;;;;;7.50;3.60;;;;;10.90;95186.00;;;;7390800;19;20129;-75
2022/07/08 01:59:16;;;;;;;7.15;3.33;;;;;10.90;95201.00;;;;7391333;19;20576;-75
2022/07/08 02:01:44;;;;;;;8.13;3.88;;;;;10.90;95203.00;;;;7387709;19;20301;-74
2022/07/08 02:04:12;;;;;;;6.40;3.25;;;;;10.90;95194.00;;;;7387979;19;20141;-74
2022/07/08 02:06:46;;;;;;;7.13;3.45;;;;;10.90;95208.00;;;;7389281;19;20141;-74
2022/07/08 02:09:13;;;;;;;13.57;3.97;;;;;10.80;95204.00;;;;7389453;19;20149;-73
2022/07/08 02:14:41;;;;;;;8.10;3.78;;;;;10.90;95210.00;;;;7394508;19;20595;-73
2022/07/08 02:17:08;;;;;;;8.15;3.45;;;;;10.80;95209.00;;;;7397762;19;20128;-73
2022/07/08 02:19:43;;;;;;;14.27;3.95;;;;;11.00;95202.00;;;;7397350;19;20167;-73
2022/07/08 02:22:11;;;;;;;10.00;4.07;;;;;10.90;95198.00;;;;7393325;19;20129;-74
2022/07/08 02:24:39;;;;;;;8.38;3.60;;;;;11.00;95209.00;;;;7395499;19;20133;-74
2022/07/08 02:27:14;;;;;;;8.65;3.80;;;;;11.00;95205.00;;;;7396760;19;20502;-73
2022/07/08 02:29:41;;;;;;;9.20;3.53;;;;;11.00;95211.00;;;;7394296;19;20588;-74
2022/07/08 02:32:09;;;;;;;11.50;3.75;;;;;11.00;95212.00;;;;7396528;19;20469;-74
2022/07/08 02:34:43;;;;;;;6.43;2.80;;;;;11.00;95203.00;;;;7396753;19;20714;-74
2022/07/08 02:37:13;;;;;;;7.90;3.45;;;;;11.00;95213.00;;;;7397309;19;20232;-74
2022/07/08 02:39:41;;;;;;;10.07;3.47;;;;;10.90;95211.00;;;;7395698;19;20189;-74
2022/07/08 02:42:15;;;;;;;15.02;3.45;;;;;10.80;95223.00;;;;7393013;19;20722;-74
2022/07/08 02:44:43;;;;;;;6.63;3.15;;;;;10.80;95224.00;;;;7397259;19;20125;-74
2022/07/08 02:47:11;;;;;;;7.28;2.97;;;;;10.60;95218.00;;;;7395677;19;20144;-74
2022/07/08 02:49:45;;;;;;;7.78;3.08;;;;;10.60;95222.00;;;;7394632;19;20188;-73
2022/07/08 02:52:12;;;;;;;12.52;3.20;;;;;10.70;95236.00;;;;7394089;19;20136;-75
2022/07/08 02:54:40;;;;;;;8.80;3.03;;;;;10.60;95233.00;;;;7395714;19;20142;-74
2022/07/08 02:57:13;;;;;;;9.07;3.67;;;;;10.60;95232.00;;;;7393181;19;20491;-73
2022/07/08 02:59:41;;;;;;;8.80;3.00;;;;;10.60;95231.00;;;;7394466;19;20502;-74
2022/07/08 03:02:08;;;;;;;6.78;2.85;;;;;10.70;95221.00;;;;7392651;19;20133;-73
2022/07/08 03:04:43;;;;;;;11.65;3.20;;;;;10.60;95223.00;;;;7395208;19;20140;-73
2022/07/08 03:07:10;;;;;;;7.63;3.22;;;;;10.60;95221.00;;;;7394514;19;20148;-73
2022/07/08 03:09:38;;;;;;;11.60;3.10;;;;;10.50;95235.00;;;;7393035;19;20145;-73
2022/07/08 03:12:18;;;;;;;8.68;3.30;;;;;10.40;95237.00;;;;7393444;19;20643;-73
2022/07/08 03:14:46;;;;;;;7.40;2.92;;;;;10.40;95242.00;;;;7396343;19;20125;-74
2022/07/08 03:17:20;;;;;;;9.85;3.65;;;;;10.30;95238.00;;;;7395674;19;20189;-72
2022/07/08 03:19:47;;;;;;;7.93;3.00;;;;;10.30;95242.00;;;;7394539;19;20141;-73
2022/07/08 03:22:15;;;;;;;9.55;3.00;;;;;10.30;95244.00;;;;7393100;19;20136;-72
2022/07/08 03:24:48;;;;;;;14.68;3.15;;;;;10.20;95250.00;;;;7393816;19;20129;-73
2022/07/08 03:27:16;;;;;;;10.27;2.95;;;;;10.20;95254.00;;;;7393812;19;20156;-73
2022/07/08 03:29:44;;;;;;;13.40;3.30;;;;;10.20;95251.00;;;;7394420;19;20611;-73
2022/07/08 03:32:17;;;;;;;6.85;3.28;;;;;10.20;95250.00;;;;7395410;19;20132;-75
2022/07/08 03:34:45;;;;;;;9.50;3.03;;;;;10.10;95251.00;;;;7393931;19;20141;-75
2022/07/08 03:37:12;;;;;;;8.43;3.00;;;;;10.00;95249.00;;;;7393812;19;20184;-75
2022/07/08 03:39:47;;;;;;;8.63;3.03;;;;;9.90;95248.00;;;;7392880;19;20630;-72
2022/07/08 03:42:15;;;;;;;9.40;3.20;;;;;9.80;95259.00;;;;7391754;19;20258;-73
2022/07/08 03:44:43;;;;;;;7.60;2.83;;;;;9.80;95266.00;;;;7392904;19;20164;-73
2022/07/08 03:47:17;;;;;;;9.85;3.13;;;;;9.80;95266.00;;;;7394736;19;20128;-73
2022/07/08 03:49:44;;;;;;;9.43;3.28;;;;;9.70;95278.00;;;;7395476;19;20133;-73
2022/07/08 03:52:12;;;;;;;7.35;3.00;;;;;9.60;95268.00;;;;7392759;19;20129;-73
2022/07/08 03:54:45;;;;;;;7.70;2.80;;;;;9.60;95271.00;;;;7393440;19;20120;-74
2022/07/08 03:57:13;;;;;;;10.30;3.22;;;;;9.50;95268.00;;;;7393554;19;20145;-73
2022/07/08 03:59:41;;;;;;;6.78;3.00;;;;;9.50;95266.00;;;;7393739;19;20156;-74
2022/07/08 04:02:22;;;;;;;9.93;3.10;;;;;9.50;95275.00;;;;7389219;19;20133;-74
2022/07/08 04:04:50;;;;;;;5.88;2.90;;;;;9.50;95275.00;;;;7392258;19;20162;-74
2022/07/08 04:07:25;;;;;;;8.35;3.42;;;;;9.50;95271.00;;;;7393655;19;20124;-74
2022/07/08 04:09:52;;;;;;;6.47;3.05;;;;;9.50;95275.00;;;;7392524;19;20588;-74
2022/07/08 04:12:20;;;;;;;8.50;3.00;;;;;9.50;95273.00;;;;7390260;19;20199;-75
2022/07/08 04:15:00;;;;;;;8.27;3.40;;;;;9.60;95270.00;;;;7394043;19;20113;-75
2022/07/08 04:17:28;;;;;;;10.13;3.17;;;;;9.50;95272.00;;;;7392504;19;20120;-74
2022/07/08 04:20:02;;;;;;;8.40;3.00;;;;;9.60;95273.00;;;;7392060;19;20132;-74
2022/07/08 04:22:30;;;;;;;9.30;3.35;;;;;9.60;95288.00;;;;7389984;19;20144;-75
2022/07/08 04:24:57;;;;;;;10.45;2.90;;;;;9.70;95280.00;;;;7393228;19;20137;-74
2022/07/08 04:27:32;;;;;;;6.88;2.60;;;;;9.70;95267.00;;;;7392122;19;20203;-75
2022/07/08 04:29:59;;;;;;;11.57;3.30;;;;;9.80;95274.00;;;;7392512;19;20128;-75
2022/07/08 04:32:27;;;;;;;7.22;2.90;;;;;9.80;95270.00;;;;7394369;19;20145;-74
2022/07/08 04:35:00;;;;;;;7.43;3.05;;;;;9.90;95268.00;;;;7392119;19;20164;-74
2022/07/08 04:37:28;;;;;;;9.90;3.10;;;;;10.00;95268.00;;;;7393180;19;20212;-74
2022/07/08 04:39:56;;;;;;;8.20;2.95;;;;;10.10;95268.00;;;;7392473;19;20152;-74
2022/07/08 04:42:29;;;;;;;9.93;3.00;;;;;10.20;95276.00;;;;7389979;19;20209;-74
2022/07/08 04:44:57;;;;;;;7.07;2.58;;;;;10.30;95278.00;;;;7391431;19;20129;-75
2022/07/08 04:47:25;;;;;;;8.40;2.70;;;;;10.50;95281.00;;;;7392354;19;20136;-73
2022/07/08 04:49:59;;;;;;;11.15;2.80;;;;;10.60;95273.00;;;;7391157;19;20133;-73
2022/07/08 04:52:26;;;;;;;8.55;2.88;;;;;10.70;95277.00;;;;7390637;19;20141;-73
2022/07/08 04:54:53;;;;;;;11.27;3.45;;;;;10.80;95283.00;;;;7390822;19;20251;-73
2022/07/08 04:57:32;;;;;;;6.63;2.78;;;;;10.90;95281.00;;;;7393179;19;20121;-73
2022/07/08 05:00:04;;;;;;;6.50;2.58;;;;;11.10;95284.00;;;;7392287;19;20148;-73
2022/07/08 05:02:38;;;;;;;10.35;2.92;;;;;11.20;95275.00;;;;7391416;19;20475;-73
2022/07/08 05:05:06;;;;;;;12.35;2.75;;;;;11.30;95272.00;;;;7391428;19;20158;-73
2022/07/08 05:07:49;;;;;;;6.75;2.63;;;;;11.40;95277.00;;;;7391214;19;20136;-73
2022/07/08 05:10:31;;;;;;;15.23;2.88;;;;;11.50;95281.00;;;;7389901;19;20148;-73
2022/07/08 05:13:07;;;;;;;6.80;2.80;;;;;11.70;95272.00;;;;7390722;19;20578;-73
2022/07/08 05:15:41;;;;;;;10.35;3.15;;;;;11.80;95276.00;;;;7390669;19;20132;-73
2022/07/08 05:18:08;;;;;;;8.38;2.83;;;;;12.00;95280.00;;;;7390460;19;20140;-73
2022/07/08 05:20:36;;;;;;;7.75;2.85;;;;;12.10;95279.00;;;;7391244;19;20610;-73
2022/07/08 05:23:10;;;;;;;11.13;2.45;;;;;12.10;95277.00;;;;7390967;19;20579;-73
2022/07/08 05:25:37;;;;;;;6.82;2.60;;;;;12.10;95273.00;;;;7390906;19;20161;-72
2022/07/08 05:28:05;;;;;;;5.32;2.10;;;;;12.40;95275.00;;;;7384211;19;20141;-73
2022/07/08 05:30:39;;;;;;;5.68;2.75;;;;;12.70;95284.00;;;;7394107;19;20152;-73
2022/07/08 05:33:06;;;;;;;6.57;2.33;;;;;12.70;95283.00;;;;7393507;19;20484;-72
2022/07/08 05:35:34;;;;;;;7.78;2.55;;;;;12.80;95277.00;;;;7396087;19;20132;-72
2022/07/08 05:38:08;;;;;;;4.88;2.33;;;;;12.80;95280.00;;;;7395603;19;20844;-73
2022/07/08 05:40:36;;;;;;;5.90;2.08;;;;;12.80;95273.00;;;;7393396;19;20137;-73
2022/07/08 05:43:04;;;;;;;7.22;2.15;;;;;12.70;95277.00;;;;7392425;19;20125;-73
2022/07/08 05:45:38;;;;;;;10.93;1.98;;;;;12.90;95278.00;;;;7393224;19;20456;-75
2022/07/08 05:48:07;;;;;;;8.25;2.20;;;;;13.10;95288.00;;;;7397903;19;20129;-73
2022/07/08 05:50:34;;;;;;;5.78;2.08;;;;;13.40;95281.00;;;;7399148;19;20592;-73
2022/07/08 05:53:08;;;;;;;5.13;2.17;;;;;13.60;95285.00;;;;7397092;19;20136;-72
2022/07/08 05:55:36;;;;;;;9.60;2.42;;;;;13.70;95288.00;;;;7400368;19;20156;-75
2022/07/08 05:58:04;;;;;;;6.70;2.00;;;;;13.60;95286.00;;;;7399771;19;20604;-75
2022/07/08 06:00:38;;;;;;;6.30;2.00;;;;;13.60;95282.00;;;;7399939;19;20152;-73
2022/07/08 06:03:06;;;;;;;9.18;2.25;;;;;13.70;95296.00;;;;7397265;19;20140;-73
2022/07/08 06:05:33;;;;;;;6.10;2.10;;;;;14.00;95302.00;;;;7400406;19;20140;-73
2022/07/08 06:08:07;;;;;;;7.32;1.98;;;;;14.00;95295.00;;;;7398424;19;20531;-73
2022/07/08 06:10:35;;;;;;;7.22;2.40;;;;;14.10;95299.00;;;;7398211;19;20141;-73
2022/07/08 06:13:03;;;;;;;6.78;2.22;;;;;14.30;95301.00;;;;7392639;19;20645;-73
2022/07/08 06:15:43;;;;;;;5.10;2.05;;;;;14.50;95305.00;;;;7398062;19;20583;-74
2022/07/08 06:18:11;;;;;;;9.38;2.03;;;;;14.80;95299.00;;;;7399953;19;20137;-73
2022/07/08 06:20:45;;;;;;;5.65;2.00;;;;;15.00;95304.00;;;;7399062;19;20200;-73
2022/07/08 06:23:13;;;;;;;13.55;2.65;;;;;14.50;95295.00;;;;7396738;19;20161;-73
2022/07/08 06:25:41;;;;;;;8.57;2.00;;;;;14.80;95306.00;;;;7399306;19;20149;-73
2022/07/08 06:28:15;;;;;;;7.53;1.70;;;;;14.40;95297.00;;;;7399791;19;20163;-73
2022/07/08 06:30:43;;;;;;;5.28;1.95;;;;;14.70;95305.00;;;;7396174;19;20190;-73
2022/07/08 06:33:12;;;;;;;5.22;1.77;;;;;14.20;95316.00;;;;7399980;19;20151;-73
2022/07/08 06:35:48;;;;;;;8.90;1.90;;;;;13.90;95320.00;;;;7401129;19;20133;-74
2022/07/08 06:38:16;;;;;;;8.00;2.15;;;;;13.80;95331.00;;;;7399971;19;20258;-73
2022/07/08 06:40:44;;;;;;;7.53;2.10;;;;;13.80;95328.00;;;;7398216;19;20121;-74
2022/07/08 06:43:18;;;;;;;6.38;2.10;;;;;13.60;95324.00;;;;7394486;19;20141;-73
2022/07/08 06:45:46;;;;;;;3.78;1.92;;;;;13.90;95322.00;;;;7398201;19;20131;-73
2022/07/08 06:48:14;;;;;;;5.57;1.90;;;;;14.10;95321.00;;;;7398787;19;20638;-73
2022/07/08 06:50:48;;;;;;;4.97;2.17;;;;;14.40;95320.00;;;;7397759;19;20487;-73
2022/07/08 06:53:15;;;;;;;10.85;2.85;;;;;14.80;95310.00;;;;7398205;19;20133;-74
2022/07/08 06:55:43;;;;;;;8.93;1.95;;;;;15.00;95320.00;;;;7399053;19;20149;-73
2022/07/08 06:58:17;;;;;;;8.13;2.22;;;;;14.90;95319.00;;;;7399884;19;20172;-74
2022/07/08 07:00:44;;;;;;;6.78;1.95;;;;;15.00;95327.00;;;;7396278;19;20144;-73
2022/07/08 07:03:12;;;;;;;5.95;1.80;;;;;15.20;95319.00;;;;7394438;19;20133;-73
2022/07/08 07:05:46;;;;;;;5.63;1.90;;;;;15.40;95329.00;;;;7398401;19;20125;-74
2022/07/08 07:08:14;;;;;;;4.55;1.55;;;;;15.30;95337.00;;;;7398480;19;20955;-73
2022/07/08 07:10:41;;;;;;;5.28;2.03;;;;;15.10;95335.00;;;;7395112;19;20172;-74
2022/07/08 07:13:22;;;;;;;5.47;2.03;;;;;14.90;95333.00;;;;7392577;19;20186;-74
2022/07/08 07:15:56;;;;;;;6.72;2.00;;;;;15.00;95332.00;;;;7397752;19;20140;-73
2022/07/08 07:18:31;;;;;;;5.32;2.08;;;;;15.00;95349.00;;;;7393937;19;20140;-74
2022/07/08 07:20:59;;;;;;;7.75;2.05;;;;;14.80;95341.00;;;;7394557;19;20136;-74
2022/07/08 07:23:27;;;;;;;5.60;1.90;;;;;14.90;95349.00;;;;7394443;19;20145;-75
2022/07/08 07:26:01;;;;;;;5.18;2.00;;;;;14.90;95353.00;;;;7397201;19;20526;-74
2022/07/08 07:28:28;;;;;;;5.53;2.00;;;;;14.90;95351.00;;;;7393335;19;20173;-74
2022/07/08 07:30:56;;;;;;;7.03;2.22;;;;;15.00;95354.00;;;;7394049;19;20153;-75
2022/07/08 07:33:31;;;;;;;5.28;2.05;;;;;15.10;95340.00;;;;7394485;19;20211;-74
2022/07/08 07:35:59;;;;;;;7.63;1.95;;;;;15.30;95354.00;;;;7395709;19;20220;-74
2022/07/08 07:38:26;;;;;;;5.40;2.15;;;;;15.30;95360.00;;;;7392999;19;20159;-75
2022/07/08 07:41:01;;;;;;;6.65;2.10;;;;;15.30;95359.00;;;;7396253;19;20147;-74
2022/07/08 07:43:28;;;;;;;7.80;2.40;;;;;15.10;95350.00;;;;7392233;19;20141;-75
2022/07/08 07:45:56;;;;;;;4.38;1.83;;;;;15.20;95354.00;;;;7397268;19;20588;-74
2022/07/08 07:48:30;;;;;;;6.20;2.17;;;;;15.10;95367.00;;;;7392839;19;21065;-74
2022/07/08 07:50:59;;;;;;;7.65;2.20;;;;;15.10;95366.00;;;;7394040;19;20476;-74
2022/07/08 07:53:29;;;;;;;5.82;2.13;;;;;15.30;95363.00;;;;7395861;19;20129;-74
2022/07/08 07:56:05;;;;;;;5.88;1.98;;;;;15.20;95362.00;;;;7399655;19;20121;-73
2022/07/08 07:58:33;;;;;;;5.60;2.28;;;;;15.10;95360.00;;;;7395917;19;20139;-74
2022/07/08 08:01:01;;;;;;;7.88;2.20;;;;;15.10;95364.00;;;;7395521;19;20485;-76
2022/07/08 08:03:35;;;;;;;6.07;1.90;;;;;15.80;95349.00;;;;7394299;19;20140;-72
2022/07/08 08:06:04;;;;;;;6.85;2.35;;;;;16.40;95347.00;;;;7395961;19;20157;-75
2022/07/08 08:08:32;;;;;;;5.75;2.00;;;;;17.30;95345.00;;;;7393339;19;20619;-74
2022/07/08 08:11:07;;;;;;;8.65;2.05;;;;;17.30;95360.00;;;;7391768;19;20523;-74
2022/07/08 08:13:41;;;;;;;5.35;1.75;;;;;16.80;95358.00;;;;7391236;19;20633;-74
2022/07/08 08:16:16;;;;;;;3.85;1.90;;;;;15.90;95346.00;;;;7395275;19;20157;-75
2022/07/08 08:18:43;;;;;;;8.55;1.98;;;;;15.80;95364.00;;;;7395262;19;20144;-74
2022/07/08 08:21:12;;;;;;;8.05;2.15;;;;;15.80;95364.00;;;;7395058;19;20545;-75
2022/07/08 08:23:47;;;;;;;5.72;2.08;;;;;16.60;95351.00;;;;7395127;19;20487;-75
2022/07/08 08:26:14;;;;;;;6.07;2.40;;;;;17.20;95350.00;;;;7394289;19;20137;-75
2022/07/08 08:28:42;;;;;;;8.23;2.13;;;;;17.50;95354.00;;;;7393238;19;20162;-75
2022/07/08 08:31:16;;;;;;;7.55;2.28;;;;;17.60;95349.00;;;;7393281;19;20125;-75
2022/07/08 08:33:43;;;;;;;4.07;1.85;;;;;17.90;95349.00;;;;7395904;19;20132;-74
2022/07/08 08:36:11;;;;;;;7.38;2.28;;;;;18.20;95344.00;;;;7397054;19;20140;-74
2022/07/08 08:38:46;;;;;;;11.60;2.28;;;;;18.40;95346.00;;;;7394654;19;20583;-75
2022/07/08 08:41:16;;;;;;;6.82;2.05;;;;;18.50;95344.00;;;;7393425;19;20148;-75
2022/07/08 08:43:43;;;;;;;7.55;2.17;;;;;18.40;95341.00;;;;7395318;19;20226;-75
2022/07/08 08:46:23;;;;;;;7.22;2.00;;;;;17.90;95336.00;;;;7394384;19;20211;-75
2022/07/08 08:48:58;;;;;;;5.25;1.88;;;;;18.00;95334.00;;;;7392761;19;20483;-76
2022/07/08 08:51:34;;;;;;;5.50;2.00;;;;;18.10;95330.00;;;;7395995;19;20604;-76
2022/07/08 08:54:05;;;;;;;5.85;2.22;;;;;18.30;95332.00;;;;7395647;19;20613;-76
2022/07/08 08:56:40;;;;;;;3.83;2.00;;;;;18.60;95335.00;;;;7393481;19;20148;-75
2022/07/08 08:59:08;;;;;;;7.60;1.90;;;;;19.10;95331.00;;;;7391900;19;20156;-75
2022/07/08 09:01:36;;;;;;;6.78;1.80;;;;;19.40;95329.00;;;;7395119;19;20133;-76
2022/07/08 09:04:11;;;;;;;7.45;2.05;;;;;19.40;95336.00;;;;7395073;19;20129;-75
2022/07/08 09:06:40;;;;;;;4.63;1.73;;;;;19.60;95334.00;;;;7391246;19;20161;-75
2022/07/08 09:09:08;;;;;;;3.03;1.70;;;;;19.20;95333.00;;;;7392799;19;20144;-75
2022/07/08 09:11:57;;;;;;;6.43;1.65;;;;;19.40;95336.00;;;;7392510;19;20490;-75
2022/07/08 09:14:32;;;;;;;5.55;1.85;;;;;19.60;95330.00;;;;7391240;19;20478;-75
2022/07/08 09:17:12;;;;;;;4.18;2.00;;;;;19.60;95334.00;;;;7393824;19;20125;-76
2022/07/08 09:19:50;;;;;;;4.57;2.08;;;;;20.00;95333.00;;;;7395359;19;20208;-76
2022/07/08 09:22:25;;;;;;;5.28;1.80;;;;;20.50;95324.00;;;;7393284;19;20133;-76
2022/07/08 09:24:56;;;;;;;4.07;1.77;;;;;20.20;95319.00;;;;7389506;19;20148;-76
2022/07/08 09:27:24;;;;;;;6.63;2.08;;;;;20.50;95325.00;;;;7393345;19;20599;-75
2022/07/08 09:30:05;;;;;;;5.47;1.88;;;;;20.60;95323.00;;;;7395133;19;20603;-75
2022/07/08 09:32:33;;;;;;;7.65;2.00;;;;;20.60;95328.00;;;;7393495;19;20139;-75
2022/07/08 09:35:13;;;;;;;6.45;1.90;;;;;20.50;95338.00;;;;7393965;19;20144;-76
2022/07/08 09:37:41;;;;;;;6.00;1.85;;;;;20.00;95352.00;;;;7393573;19;20161;-75
2022/07/08 09:40:18;;;;;;;4.53;2.00;;;;;19.60;95340.00;;;;7395822;19;20598;-75
2022/07/08 09:42:51;;;;;;;5.57;2.20;;;;;19.80;95331.00;;;;7392789;19;20616;-75
2022/07/08 09:45:33;;;;;;;4.57;1.67;;;;;19.90;95342.00;;;;7393156;19;20492;-76
2022/07/08 09:48:05;;;;;;;6.25;1.92;;;;;19.10;95346.00;;;;7394368;19;20595;-75
2022/07/08 09:50:41;;;;;;;6.85;1.77;;;;;19.70;95338.00;;;;7389499;19;20613;-75
2022/07/08 09:53:29;;;;;;;4.47;1.60;;;;;20.10;95346.00;;;;7391529;19;20136;-75
2022/07/08 09:56:03;;;;;;;4.43;1.55;;;;;20.10;95351.00;;;;7392027;19;20591;-75
2022/07/08 09:58:35;;;;;;;6.60;1.60;;;;;20.20;95344.00;;;;7389479;19;20136;-75
2022/07/08 10:01:03;;;;;;;6.15;1.88;;;;;20.60;95352.00;;;;7392316;19;20125;-75
2022/07/08 10:03:37;;;;;;;4.80;1.63;;;;;20.90;95346.00;;;;7390729;19;20611;-75
2022/07/08 10:06:05;;;;;;;4.20;1.75;;;;;21.20;95351.00;;;;7390278;19;20149;-75
2022/07/08 10:08:32;;;;;;;5.80;2.30;;;;;21.40;95346.00;;;;7390797;19;20170;-75
2022/07/08 10:11:08;;;;;;;5.20;1.60;;;;;21.00;95348.00;;;;7390710;19;20168;-75
2022/07/08 10:13:50;;;;;;;7.35;1.98;;;;;21.10;95352.00;;;;7388738;19;20176;-76
2022/07/08 10:16:25;;;;;;;6.32;2.05;;;;;20.50;95360.00;;;;7390704;19;20137;-75
2022/07/08 10:18:54;;;;;;;5.90;2.35;;;;;19.80;95358.00;;;;7389647;19;20592;-75
2022/07/08 10:21:26;;;;;;;5.55;1.95;;;;;20.00;95364.00;;;;7391000;19;20137;-75
2022/07/08 10:24:01;;;;;;;4.43;1.95;;;;;20.10;95356.00;;;;7390357;19;20188;-75
2022/07/08 10:26:35;;;;;;;5.78;1.85;;;;;19.50;95353.00;;;;7389039;19;20148;-75
2022/07/08 10:29:14;;;;;;;3.70;1.90;;;;;20.20;95350.00;;;;7389586;19;20185;-76
2022/07/08 10:31:51;;;;;;;6.63;2.22;;;;;20.40;95360.00;;;;7390080;19;20156;-77
2022/07/08 10:34:34;;;;;;;6.38;2.10;;;;;20.60;95360.00;;;;7391820;19;20624;-76
2022/07/08 10:37:03;;;;;;;4.28;1.65;;;;;20.50;95363.00;;;;7396332;19;20494;-74
2022/07/08 10:39:42;;;;;;;5.75;2.00;;;;;20.70;95367.00;;;;7397445;19;20614;-76
2022/07/08 10:42:11;;;;;;;48.88;40.47;;;;;20.80;95363.00;;;;7398198;19;20164;-75
2022/07/08 10:44:45;;;;;;;10.27;2.70;;;;;20.90;95364.00;;;;7397348;19;20135;-75
2022/07/08 10:47:29;;;;;;;8.88;4.13;;;;;21.50;95374.00;;;;7394008;19;20129;-75
2022/07/08 10:50:06;;;;;;;10.07;2.80;;;;;21.80;95364.00;;;;7398947;19;20139;-75
2022/07/08 10:52:42;;;;;;;15.52;10.07;;;;;21.60;95370.00;;;;7398956;19;20676;-76
2022/07/08 10:55:17;;;;;;;955.28;656.65;;;;;20.80;95368.00;;;;7397667;19;20619;-75
2022/07/08 10:57:55;;;;;;;305.85;213.57;;;;;21.70;95360.00;;;;7397150;19;20607;-74
2022/07/08 11:00:36;;;;;;;18.88;11.68;;;;;21.40;95366.00;;;;7399030;19;20137;-75
2022/07/08 11:03:04;;;;;;;7.57;2.67;;;;;22.00;95376.00;;;;7396674;19;20144;-75
2022/07/08 11:05:41;;;;;;;50.72;42.63;;;;;21.60;95360.00;;;;7396988;19;20140;-75
2022/07/08 11:08:29;;;;;;;5.20;2.58;;;;;21.80;95368.00;;;;7396234;19;20121;-74
2022/07/08 11:11:03;;;;;;;6.60;3.45;;;;;22.00;95365.00;;;;7395913;19;20683;-75
2022/07/08 11:13:38;;;;;;;7.50;2.50;;;;;22.10;95363.00;;;;7395484;19;20172;-74
2022/07/08 11:16:12;;;;;;;5.60;2.25;;;;;22.30;95375.00;;;;7397531;19;20144;-77
2022/07/08 11:18:47;;;;;;;6.88;2.75;;;;;21.80;95368.00;;;;7395100;19;20124;-75
2022/07/08 11:21:22;;;;;;;5.95;2.60;;;;;21.00;95369.00;;;;7395781;19;20152;-75
2022/07/08 11:23:49;;;;;;;11.85;7.65;;;;;20.60;95363.00;;;;7396167;19;20475;-76
2022/07/08 11:26:20;;;;;;;5.78;2.83;;;;;20.70;95371.00;;;;7396726;19;20168;-74
2022/07/08 11:28:54;;;;;;;3.83;2.38;;;;;20.90;95361.00;;;;7397511;19;20606;-75
2022/07/08 11:31:27;;;;;;;4.95;2.20;;;;;21.70;95369.00;;;;7396118;19;20136;-76
2022/07/08 11:34:02;;;;;;;5.28;2.63;;;;;22.00;95372.00;;;;7391852;19;20136;-75
2022/07/08 11:36:30;;;;;;;10.07;4.28;;;;;21.60;95364.00;;;;7390930;19;20153;-75
2022/07/08 11:39:04;;;;;;;18.60;8.88;;;;;21.70;95369.00;;;;7390802;19;20136;-75
2022/07/08 11:41:42;;;;;;;5.95;2.35;;;;;21.60;95367.00;;;;7395015;19;20140;-75
2022/07/08 11:44:11;;;;;;;11.95;5.38;;;;;21.20;95367.00;;;;7389307;19;20133;-74
2022/07/08 11:46:47;;;;;;;6.63;2.90;;;;;21.20;95370.00;;;;7388100;19;20575;-75
2022/07/08 11:49:16;;;;;;;8.18;2.17;;;;;21.50;95374.00;;;;7389514;19;20927;-74
2022/07/08 11:51:48;;;;;;;6.35;2.78;;;;;22.00;95367.00;;;;7390646;19;20184;-75
2022/07/08 11:54:26;;;;;;;7.47;2.70;;;;;22.60;95364.00;;;;7392534;19;20149;-75
2022/07/08 11:56:56;;;;;;;3.60;1.85;;;;;22.50;95370.00;;;;7391039;19;20911;-74
2022/07/08 11:59:35;;;;;;;6.53;1.75;;;;;22.70;95366.00;;;;7392691;19;20152;-74
2022/07/08 12:02:04;;;;;;;4.38;1.95;;;;;21.90;95362.00;;;;7392576;19;20172;-74
2022/07/08 12:04:42;;;;;;;5.78;1.80;;;;;21.90;95361.00;;;;7389121;19;20172;-74
2022/07/08 12:08:32;;;;;;;6.18;2.17;;;;;21.80;95361.00;;;;6895570;19;10177438;-74
2022/07/08 12:11:20;;;;;;;5.20;1.85;;;;;22.00;95364.00;;;;7422762;19;20140;-75
2022/07/08 12:13:49;;;;;;;6.88;2.05;;;;;22.20;95370.00;;;;7422915;19;20132;-75
2022/07/08 12:16:53;;;;;;;7.95;2.20;;;;;22.60;95370.00;;;;7413250;19;20229;-74
2022/07/08 12:19:34;;;;;;;7.93;1.70;;;;;22.60;95369.00;;;;7416055;19;20156;-75
2022/07/08 12:22:12;;;;;;;5.80;1.90;;;;;22.80;95367.00;;;;7419932;19;20152;-74
2022/07/08 12:24:42;;;;;;;5.22;1.90;;;;;22.70;95365.00;;;;7421446;19;20175;-74
2022/07/08 12:27:19;;;;;;;6.53;1.92;;;;;22.60;95369.00;;;;7417720;19;20156;-74
2022/07/08 12:29:46;;;;;;;5.38;2.25;;;;;22.50;95356.00;;;;7420649;19;20219;-74
2022/07/08 12:32:14;;;;;;;6.15;2.08;;;;;21.50;95356.00;;;;7423548;19;20256;-74
2022/07/08 12:34:51;;;;;;;5.40;2.10;;;;;21.30;95357.00;;;;7417452;19;20151;-74
2022/07/08 12:37:20;;;;;;;4.00;1.67;;;;;21.80;95359.00;;;;7418440;19;20207;-74
2022/07/08 12:39:48;;;;;;;5.07;1.95;;;;;21.90;95347.00;;;;7423144;19;20136;-75
2022/07/08 12:42:28;;;;;;;6.88;2.13;;;;;21.50;95362.00;;;;7417432;19;20163;-75